Time;durP1;ratioP1;P1;durP2;ratioP2;P2;SDS_P1;SDS_P2;PMS_P1;PMS_P2;Temp;Humidity;BMP_temperature;BMP_pressure;BME280_temperature;BME280_humidity;BME280_pressure;Samples;Min_cycle;Max_cycle;Signal;HPM_P1;HPM_P2
2023/08/21 00:04:13;;;;;;;11.48;6.20;;;;;;;;;;5036708;27;20443;-61
2023/08/21 00:06:40;;;;;;;9.77;6.50;;;;;;;;;;5022395;28;20037;-64
2023/08/21 00:09:07;;;;;;;12.13;6.00;;;;;;;;;;5023149;28;20052;-61
2023/08/21 00:11:33;;;;;;;11.65;6.80;;;;;;;;;;5022757;28;20078;-61
2023/08/21 00:14:00;;;;;;;9.93;6.32;;;;;;;;;;5039922;28;20829;-62
2023/08/21 00:16:28;;;;;;;10.10;6.53;;;;;;;;;;5023859;28;20298;-63
2023/08/21 00:18:55;;;;;;;10.77;6.47;;;;;;;;;;5024176;28;20118;-64
2023/08/21 00:21:21;;;;;;;11.52;5.93;;;;;;;;;;5038606;28;20136;-61
2023/08/21 00:23:48;;;;;;;9.50;5.60;;;;;;;;;;5025743;28;20053;-62
2023/08/21 00:26:14;;;;;;;10.88;6.03;;;;;;;;;;5026214;28;20041;-59
2023/08/21 00:28:41;;;;;;;9.57;5.50;;;;;;;;;;5024157;28;20037;-59
2023/08/21 00:31:07;;;;;;;9.60;6.13;;;;;;;;;;5024496;28;20220;-61
2023/08/21 00:33:34;;;;;;;10.45;6.50;;;;;;;;;;5023925;28;20033;-60
2023/08/21 00:36:01;;;;;;;10.68;6.05;;;;;;;;;;5024847;28;20043;-61
2023/08/21 00:38:28;;;;;;;12.60;6.78;;;;;;;;;;5024812;28;20035;-61
2023/08/21 00:40:54;;;;;;;10.45;6.10;;;;;;;;;;5026124;28;20037;-60
2023/08/21 00:43:21;;;;;;;13.38;6.22;;;;;;;;;;5038758;28;20053;-62
2023/08/21 00:45:48;;;;;;;9.23;6.05;;;;;;;;;;5023974;28;20725;-61
2023/08/21 00:48:15;;;;;;;9.05;5.65;;;;;;;;;;5039206;28;20068;-63
2023/08/21 00:50:42;;;;;;;9.35;5.72;;;;;;;;;;5023672;28;20087;-64
2023/08/21 00:53:09;;;;;;;10.95;6.82;;;;;;;;;;5024871;28;20037;-64
2023/08/21 00:55:36;;;;;;;10.65;6.95;;;;;;;;;;5024209;28;20485;-60
2023/08/21 00:58:06;;;;;;;10.68;6.40;;;;;;;;;;5022472;28;20088;-63
2023/08/21 01:00:33;;;;;;;10.88;6.07;;;;;;;;;;5022606;28;20528;-61
2023/08/21 01:03:00;;;;;;;9.13;6.20;;;;;;;;;;5022938;28;20056;-61
2023/08/21 01:05:27;;;;;;;10.05;5.97;;;;;;;;;;5024929;28;20121;-63
2023/08/21 01:08:04;;;;;;;12.70;5.65;;;;;;;;;;5026783;28;20041;-61
2023/08/21 01:10:31;;;;;;;9.27;5.75;;;;;;;;;;5021533;28;21951;-60
2023/08/21 01:13:02;;;;;;;10.82;5.65;;;;;;;;;;5024939;28;20151;-63
2023/08/21 01:15:29;;;;;;;10.90;5.90;;;;;;;;;;5025023;28;20052;-61
2023/08/21 01:17:56;;;;;;;9.77;6.25;;;;;;;;;;5011674;28;20042;-62
2023/08/21 01:20:23;;;;;;;13.73;6.45;;;;;;;;;;5025022;28;20789;-61
2023/08/21 01:22:50;;;;;;;9.02;5.60;;;;;;;;;;5010300;28;20143;-62
2023/08/21 01:25:17;;;;;;;12.13;6.05;;;;;;;;;;5009738;28;20320;-62
2023/08/21 01:27:51;;;;;;;11.30;6.10;;;;;;;;;;5008874;28;20034;-60
2023/08/21 01:30:18;;;;;;;12.77;6.40;;;;;;;;;;5023337;28;20164;-62
2023/08/21 01:33:17;;;;;;;9.20;6.30;;;;;;;;;;5010683;28;20046;-63
2023/08/21 01:35:43;;;;;;;11.07;5.90;;;;;;;;;;5007196;28;20383;-62
2023/08/21 01:38:10;;;;;;;10.35;6.43;;;;;;;;;;5010204;28;20037;-61
2023/08/21 01:40:37;;;;;;;27.08;8.95;;;;;;;;;;5007717;28;20073;-63
2023/08/21 01:43:04;;;;;;;82.78;13.48;;;;;;;;;;5013473;28;20087;-66
2023/08/21 01:45:30;;;;;;;9.90;5.75;;;;;;;;;;5012893;28;20044;-64
2023/08/21 01:47:57;;;;;;;13.05;6.72;;;;;;;;;;5011384;28;20048;-59
2023/08/21 01:50:23;;;;;;;15.32;6.80;;;;;;;;;;5025049;28;20730;-64
2023/08/21 01:52:50;;;;;;;8.88;5.95;;;;;;;;;;5009873;28;20046;-62
2023/08/21 01:55:16;;;;;;;9.75;6.30;;;;;;;;;;5011539;28;20254;-64
2023/08/21 01:57:44;;;;;;;57.67;10.48;;;;;;;;;;5009691;28;20540;-66
2023/08/21 02:00:11;;;;;;;88.80;14.05;;;;;;;;;;5006685;28;20033;-64
2023/08/21 02:02:38;;;;;;;79.22;15.60;;;;;;;;;;5009344;28;20942;-63
2023/08/21 02:05:05;;;;;;;49.38;11.63;;;;;;;;;;5009883;28;20060;-65
2023/08/21 02:07:31;;;;;;;13.85;6.55;;;;;;;;;;5010530;28;20564;-64
2023/08/21 03:18:58;;;;;;;11.27;7.03;;;;;;;;;;5050566;27;20426;-62
2023/08/21 03:21:24;;;;;;;12.05;6.72;;;;;;;;;;5043275;28;20049;-61
2023/08/21 03:23:52;;;;;;;12.18;7.10;;;;;;;;;;5033228;28;20052;-60
2023/08/21 03:26:19;;;;;;;11.20;6.25;;;;;;;;;;5026343;28;20676;-63
2023/08/21 03:28:45;;;;;;;12.00;7.03;;;;;;;;;;5024098;28;20391;-59
2023/08/21 03:31:12;;;;;;;11.68;6.60;;;;;;;;;;5019906;28;20148;-59
2023/08/21 03:33:39;;;;;;;12.43;6.25;;;;;;;;;;5030538;28;20041;-61
2023/08/21 03:36:05;;;;;;;11.82;6.32;;;;;;;;;;5023614;28;20168;-63
2023/08/21 03:38:32;;;;;;;11.43;7.15;;;;;;;;;;5021937;28;20042;-60
2023/08/21 03:41:00;;;;;;;9.70;6.60;;;;;;;;;;5022588;28;20037;-61
2023/08/21 03:43:26;;;;;;;13.32;7.28;;;;;;;;;;5023259;28;20037;-60
2023/08/21 03:45:53;;;;;;;10.50;6.47;;;;;;;;;;5023266;28;20041;-62
2023/08/21 03:48:20;;;;;;;11.77;6.63;;;;;;;;;;5039329;28;20451;-60
2023/08/21 03:50:46;;;;;;;14.65;7.45;;;;;;;;;;5021134;28;20042;-60
2023/08/21 03:53:13;;;;;;;14.57;6.90;;;;;;;;;;5022839;28;20041;-61
2023/08/21 03:55:39;;;;;;;14.52;7.20;;;;;;;;;;5021964;28;20038;-58
2023/08/21 03:58:06;;;;;;;14.73;7.75;;;;;;;;;;5023363;28;20484;-61
2023/08/21 04:00:33;;;;;;;15.98;6.65;;;;;;;;;;5021727;28;20037;-61
2023/08/21 04:02:59;;;;;;;14.90;7.15;;;;;;;;;;5020740;28;20033;-62
2023/08/21 04:05:26;;;;;;;11.40;7.15;;;;;;;;;;5022897;28;20398;-61
2023/08/21 04:07:52;;;;;;;12.65;7.60;;;;;;;;;;5022730;28;20057;-61
2023/08/21 04:10:19;;;;;;;13.48;7.30;;;;;;;;;;5021829;28;20037;-63
2023/08/21 04:12:46;;;;;;;12.57;7.32;;;;;;;;;;5022112;28;20126;-59
2023/08/21 04:15:12;;;;;;;12.18;7.05;;;;;;;;;;5021792;28;20037;-59
2023/08/21 04:17:39;;;;;;;13.45;6.90;;;;;;;;;;5021056;28;20065;-62
2023/08/21 04:20:06;;;;;;;13.73;7.30;;;;;;;;;;5022104;28;20152;-61
2023/08/21 04:22:32;;;;;;;16.52;6.68;;;;;;;;;;5021472;28;20418;-61
2023/08/21 04:25:01;;;;;;;11.88;6.47;;;;;;;;;;5021395;28;20037;-63
2023/08/21 04:27:28;;;;;;;11.15;6.22;;;;;;;;;;5037316;28;20494;-60
2023/08/21 04:29:54;;;;;;;14.40;6.88;;;;;;;;;;5009839;28;20084;-61
2023/08/21 04:32:21;;;;;;;12.88;7.05;;;;;;;;;;5009851;28;20041;-61
2023/08/21 04:34:48;;;;;;;13.13;7.68;;;;;;;;;;5008719;28;20597;-61
2023/08/21 04:37:15;;;;;;;11.77;6.95;;;;;;;;;;5010005;28;21392;-60
2023/08/21 04:39:42;;;;;;;16.05;7.10;;;;;;;;;;5008269;28;20775;-61
2023/08/21 04:42:08;;;;;;;13.27;7.05;;;;;;;;;;5026420;28;20518;-61
2023/08/21 04:44:35;;;;;;;12.40;6.68;;;;;;;;;;5009706;28;20366;-59
2023/08/21 04:47:19;;;;;;;14.70;7.28;;;;;;;;;;5009657;28;20624;-62
2023/08/21 04:49:46;;;;;;;11.95;7.03;;;;;;;;;;5007816;28;20052;-62
2023/08/21 04:52:12;;;;;;;16.27;7.45;;;;;;;;;;5008286;28;20029;-62
2023/08/21 04:54:39;;;;;;;14.13;6.75;;;;;;;;;;5007700;28;20121;-61
2023/08/21 04:57:06;;;;;;;15.88;7.25;;;;;;;;;;5014293;28;20104;-61
2023/08/21 04:59:32;;;;;;;13.45;6.68;;;;;;;;;;5014459;28;20072;-61
2023/08/21 05:01:59;;;;;;;15.48;7.00;;;;;;;;;;5014827;28;20045;-62
2023/08/21 05:04:25;;;;;;;14.23;7.57;;;;;;;;;;5012755;28;20038;-63
2023/08/21 05:06:52;;;;;;;13.18;6.93;;;;;;;;;;5014401;28;20076;-63
2023/08/21 05:09:18;;;;;;;12.77;7.30;;;;;;;;;;5014185;28;20521;-62
2023/08/21 05:11:45;;;;;;;11.90;6.85;;;;;;;;;;5014351;28;20065;-64
2023/08/21 05:14:12;;;;;;;12.68;7.32;;;;;;;;;;5013845;28;20042;-60
2023/08/21 05:16:38;;;;;;;15.95;6.68;;;;;;;;;;5012563;28;20101;-62
2023/08/21 05:19:05;;;;;;;12.85;7.80;;;;;;;;;;5013472;28;20056;-62
2023/08/21 05:21:31;;;;;;;14.60;6.50;;;;;;;;;;5013094;28;21754;-62
2023/08/21 05:23:58;;;;;;;14.40;6.93;;;;;;;;;;5014454;28;20037;-61
2023/08/21 05:26:25;;;;;;;14.70;7.28;;;;;;;;;;5013174;28;20033;-61
2023/08/21 05:28:52;;;;;;;12.25;7.43;;;;;;;;;;5014525;28;20546;-61
2023/08/21 05:31:18;;;;;;;13.77;7.53;;;;;;;;;;5014167;28;20076;-62
2023/08/21 05:33:45;;;;;;;16.42;7.97;;;;;;;;;;5012208;28;20042;-61
2023/08/21 05:36:12;;;;;;;12.20;7.20;;;;;;;;;;5014280;28;20041;-64
2023/08/21 05:38:38;;;;;;;18.95;7.65;;;;;;;;;;5013751;28;20041;-60
2023/08/21 05:41:05;;;;;;;13.75;6.70;;;;;;;;;;5012971;28;20581;-60
2023/08/21 05:43:31;;;;;;;13.52;7.72;;;;;;;;;;5012775;28;20787;-62
2023/08/21 05:45:58;;;;;;;13.65;7.10;;;;;;;;;;5014578;28;20087;-62
2023/08/21 05:48:25;;;;;;;11.65;6.93;;;;;;;;;;5013856;28;20049;-61
2023/08/21 05:50:52;;;;;;;15.63;7.22;;;;;;;;;;5010744;28;20045;-63
2023/08/21 05:53:18;;;;;;;14.80;7.05;;;;;;;;;;5014553;28;20056;-60
2023/08/21 05:55:45;;;;;;;15.10;7.75;;;;;;;;;;5012737;28;20925;-66
2023/08/21 05:58:12;;;;;;;16.52;7.10;;;;;;;;;;5014644;28;20053;-63
2023/08/21 06:00:39;;;;;;;12.95;7.20;;;;;;;;;;5011611;28;20055;-61
2023/08/21 06:03:06;;;;;;;12.98;6.93;;;;;;;;;;5013746;28;20113;-63
2023/08/21 06:05:32;;;;;;;15.68;7.22;;;;;;;;;;5013903;28;20045;-62
2023/08/21 06:07:59;;;;;;;15.93;7.63;;;;;;;;;;5013072;28;20045;-60
2023/08/21 06:10:25;;;;;;;13.32;7.00;;;;;;;;;;5011515;28;20513;-60
2023/08/21 06:12:52;;;;;;;14.82;7.82;;;;;;;;;;5014093;28;20034;-60
2023/08/21 06:15:19;;;;;;;15.68;7.35;;;;;;;;;;5014272;28;20525;-60
2023/08/21 06:17:45;;;;;;;13.75;7.05;;;;;;;;;;5012489;28;20098;-61
2023/08/21 06:20:13;;;;;;;11.73;6.55;;;;;;;;;;5012284;28;20030;-60
2023/08/21 06:22:40;;;;;;;14.60;7.05;;;;;;;;;;5011840;28;20379;-60
2023/08/21 06:25:07;;;;;;;12.50;7.15;;;;;;;;;;5016946;28;20055;-63
2023/08/21 06:27:33;;;;;;;12.55;7.05;;;;;;;;;;5015173;28;20587;-61
2023/08/21 06:30:00;;;;;;;13.30;6.72;;;;;;;;;;5011953;28;20060;-60
2023/08/21 06:32:26;;;;;;;12.82;6.45;;;;;;;;;;5030886;28;20033;-62
2023/08/21 06:34:53;;;;;;;14.68;7.38;;;;;;;;;;5013957;28;20034;-60
2023/08/21 06:37:20;;;;;;;11.73;7.35;;;;;;;;;;5012555;28;20107;-59
2023/08/21 06:39:46;;;;;;;16.15;7.10;;;;;;;;;;5012417;28;20533;-59
2023/08/21 06:42:13;;;;;;;13.02;7.13;;;;;;;;;;5012870;28;20307;-62
2023/08/21 06:44:40;;;;;;;17.00;7.50;;;;;;;;;;5012712;28;20041;-60
2023/08/21 06:47:27;;;;;;;12.25;6.47;;;;;;;;;;5012476;28;20079;-62
2023/08/21 06:49:53;;;;;;;14.23;7.25;;;;;;;;;;5017283;28;20042;-63
2023/08/21 06:52:20;;;;;;;14.40;6.53;;;;;;;;;;5018299;28;20046;-59
2023/08/21 06:54:46;;;;;;;13.77;7.10;;;;;;;;;;5010295;28;20073;-60
2023/08/21 06:57:13;;;;;;;14.98;7.60;;;;;;;;;;5008955;28;20061;-61
2023/08/21 06:59:39;;;;;;;12.45;6.63;;;;;;;;;;5008681;28;20087;-59
2023/08/21 07:02:06;;;;;;;16.10;7.00;;;;;;;;;;5009152;28;20042;-60
2023/08/21 07:04:33;;;;;;;11.90;6.95;;;;;;;;;;5008723;28;20057;-59
2023/08/21 07:07:00;;;;;;;16.33;7.68;;;;;;;;;;5009083;28;20045;-60
2023/08/21 07:09:28;;;;;;;16.20;7.53;;;;;;;;;;5009127;28;20038;-61
2023/08/21 07:11:55;;;;;;;11.98;7.35;;;;;;;;;;5009959;28;20087;-59
2023/08/21 07:14:21;;;;;;;13.77;7.20;;;;;;;;;;5008967;28;20046;-59
2023/08/21 07:16:48;;;;;;;12.77;7.15;;;;;;;;;;5008703;28;20073;-60
2023/08/21 07:19:14;;;;;;;14.30;7.15;;;;;;;;;;5007580;28;22022;-60
2023/08/21 07:21:41;;;;;;;16.75;7.32;;;;;;;;;;5010104;28;20049;-60
2023/08/21 07:24:08;;;;;;;15.68;7.85;;;;;;;;;;5008535;28;20045;-61
2023/08/21 07:26:35;;;;;;;13.48;7.13;;;;;;;;;;5009237;28;20501;-60
2023/08/21 07:29:03;;;;;;;14.32;7.82;;;;;;;;;;5012250;28;20042;-60
2023/08/21 07:31:30;;;;;;;14.30;7.13;;;;;;;;;;5012593;28;21934;-58
2023/08/21 07:33:57;;;;;;;13.25;7.25;;;;;;;;;;5012108;28;22326;-59
2023/08/21 07:36:24;;;;;;;13.52;7.15;;;;;;;;;;5012707;28;20482;-62
2023/08/21 07:38:50;;;;;;;15.27;7.82;;;;;;;;;;5012166;28;20053;-60
2023/08/21 07:41:17;;;;;;;14.20;7.32;;;;;;;;;;5013442;28;20061;-60
2023/08/21 07:43:44;;;;;;;14.10;7.07;;;;;;;;;;5012330;28;20045;-61
2023/08/21 07:46:15;;;;;;;12.93;6.78;;;;;;;;;;5012572;28;20041;-63
2023/08/21 07:48:43;;;;;;;10.63;6.68;;;;;;;;;;5012975;28;20044;-59
2023/08/21 07:51:10;;;;;;;11.90;7.30;;;;;;;;;;5014004;28;20061;-60
2023/08/21 07:53:36;;;;;;;15.65;7.40;;;;;;;;;;5013756;28;20041;-60
2023/08/21 07:56:04;;;;;;;13.88;7.65;;;;;;;;;;5014576;28;20402;-60
2023/08/21 07:58:31;;;;;;;14.23;7.13;;;;;;;;;;5011280;28;20115;-60
2023/08/21 08:00:57;;;;;;;14.70;7.60;;;;;;;;;;5012955;28;20060;-61
2023/08/21 08:03:25;;;;;;;14.68;7.45;;;;;;;;;;5011665;28;20049;-59
2023/08/21 08:05:51;;;;;;;15.15;7.13;;;;;;;;;;5015579;28;20041;-58
2023/08/21 08:08:18;;;;;;;15.30;7.90;;;;;;;;;;5015899;28;20068;-59
2023/08/21 08:10:45;;;;;;;16.90;7.20;;;;;;;;;;5014702;28;20049;-59
2023/08/21 08:13:12;;;;;;;13.57;7.30;;;;;;;;;;5017661;28;20180;-57
2023/08/21 08:15:38;;;;;;;12.85;6.78;;;;;;;;;;5016475;28;20069;-59
2023/08/21 08:18:07;;;;;;;14.27;7.38;;;;;;;;;;5016046;28;20569;-59
2023/08/21 08:20:34;;;;;;;17.67;7.90;;;;;;;;;;5013807;28;20154;-59
2023/08/21 08:23:00;;;;;;;12.38;7.18;;;;;;;;;;5015929;28;20056;-62
2023/08/21 08:25:27;;;;;;;13.60;7.55;;;;;;;;;;5015525;28;20209;-60
2023/08/21 08:27:53;;;;;;;13.25;8.23;;;;;;;;;;5014939;28;20098;-62
2023/08/21 08:30:20;;;;;;;14.60;7.68;;;;;;;;;;5015161;28;20038;-60
2023/08/21 08:32:47;;;;;;;13.10;7.82;;;;;;;;;;5014843;28;20042;-59
2023/08/21 08:35:14;;;;;;;12.68;7.28;;;;;;;;;;5023546;28;20064;-59
2023/08/21 08:37:43;;;;;;;14.07;7.25;;;;;;;;;;5016596;28;20428;-60
2023/08/21 08:40:11;;;;;;;12.85;7.15;;;;;;;;;;5015720;28;20399;-59
2023/08/21 08:42:37;;;;;;;13.30;7.78;;;;;;;;;;5015199;28;20052;-61
2023/08/21 08:45:04;;;;;;;15.35;7.65;;;;;;;;;;5016756;28;20041;-59
2023/08/21 08:47:34;;;;;;;13.60;7.18;;;;;;;;;;5016014;28;20124;-58
2023/08/21 08:50:05;;;;;;;13.95;6.72;;;;;;;;;;5014746;28;20061;-59
2023/08/21 08:52:35;;;;;;;12.85;7.82;;;;;;;;;;5013608;28;20521;-60
2023/08/21 08:55:03;;;;;;;15.50;7.75;;;;;;;;;;5015606;28;21832;-60
2023/08/21 08:57:29;;;;;;;16.55;7.93;;;;;;;;;;5014567;28;20474;-61
2023/08/21 08:59:56;;;;;;;15.45;7.65;;;;;;;;;;5014829;28;20659;-60
2023/08/21 09:02:25;;;;;;;14.93;7.70;;;;;;;;;;5014328;28;20045;-61
2023/08/21 09:04:51;;;;;;;12.43;7.63;;;;;;;;;;5014564;28;20168;-60
2023/08/21 09:07:21;;;;;;;14.48;7.70;;;;;;;;;;5014847;28;20489;-59
2023/08/21 09:09:52;;;;;;;12.77;7.60;;;;;;;;;;5014078;28;20038;-60
2023/08/21 09:12:20;;;;;;;12.20;7.13;;;;;;;;;;5015809;28;20129;-59
2023/08/21 09:14:47;;;;;;;13.90;7.32;;;;;;;;;;5015056;28;20099;-60
2023/08/21 09:17:14;;;;;;;13.85;7.32;;;;;;;;;;5015041;28;20062;-60
2023/08/21 09:19:41;;;;;;;13.05;7.40;;;;;;;;;;5013114;28;20409;-60
2023/08/21 09:22:12;;;;;;;13.20;7.68;;;;;;;;;;5015247;28;20052;-60
2023/08/21 09:24:39;;;;;;;15.20;8.05;;;;;;;;;;5015727;28;20087;-61
2023/08/21 09:27:14;;;;;;;17.17;7.60;;;;;;;;;;5015546;28;20494;-60
2023/08/21 09:29:41;;;;;;;14.95;7.63;;;;;;;;;;5013905;28;20060;-58
2023/08/21 09:32:09;;;;;;;15.45;8.07;;;;;;;;;;5015215;28;20040;-60
2023/08/21 09:34:36;;;;;;;15.40;7.53;;;;;;;;;;5014457;28;20061;-60
2023/08/21 09:37:06;;;;;;;13.75;7.80;;;;;;;;;;5016264;28;20053;-57
2023/08/21 09:39:36;;;;;;;18.02;7.95;;;;;;;;;;5013170;28;20029;-60
2023/08/21 09:42:07;;;;;;;17.33;7.82;;;;;;;;;;5015478;28;20115;-60
2023/08/21 09:44:42;;;;;;;16.38;8.40;;;;;;;;;;5013382;28;20105;-59
2023/08/21 09:47:12;;;;;;;16.30;8.30;;;;;;;;;;5012030;28;20266;-59
2023/08/21 09:49:39;;;;;;;13.38;7.70;;;;;;;;;;5012777;28;20064;-60
2023/08/21 09:52:13;;;;;;;18.10;8.85;;;;;;;;;;5014220;28;20125;-60
2023/08/21 09:54:40;;;;;;;19.23;8.70;;;;;;;;;;5013505;28;20037;-59
2023/08/21 09:57:08;;;;;;;14.82;8.35;;;;;;;;;;5018553;28;20479;-60
2023/08/21 09:59:35;;;;;;;16.27;8.13;;;;;;;;;;5014451;28;20041;-60
2023/08/21 10:02:05;;;;;;;15.85;8.57;;;;;;;;;;5013929;28;20042;-60
2023/08/21 10:04:32;;;;;;;14.40;8.20;;;;;;;;;;5027783;28;20111;-63
2023/08/21 10:07:01;;;;;;;14.57;8.68;;;;;;;;;;5014216;28;20052;-61
2023/08/21 10:09:29;;;;;;;18.80;8.27;;;;;;;;;;5014146;28;20040;-60
2023/08/21 10:11:56;;;;;;;14.57;8.25;;;;;;;;;;5015007;28;20405;-57
2023/08/21 10:14:25;;;;;;;13.57;8.18;;;;;;;;;;5014010;28;20048;-62
2023/08/21 10:16:52;;;;;;;13.52;7.60;;;;;;;;;;5015608;28;20107;-59
2023/08/21 10:19:19;;;;;;;14.80;8.38;;;;;;;;;;5013547;28;20041;-58
2023/08/21 10:21:49;;;;;;;15.13;7.90;;;;;;;;;;5014065;28;20048;-59
2023/08/21 10:24:36;;;;;;;14.70;8.43;;;;;;;;;;5015332;28;20041;-59
2023/08/21 10:27:03;;;;;;;16.17;7.95;;;;;;;;;;5013695;28;20039;-59
2023/08/21 10:29:31;;;;;;;16.08;8.52;;;;;;;;;;5012723;28;20119;-59
2023/08/21 10:32:05;;;;;;;16.95;7.85;;;;;;;;;;5012587;28;20026;-60
2023/08/21 10:34:33;;;;;;;16.05;7.85;;;;;;;;;;5005765;28;20570;-58
2023/08/21 10:37:12;;;;;;;13.82;7.70;;;;;;;;;;5026762;28;20119;-62
2023/08/21 10:39:39;;;;;;;13.32;7.45;;;;;;;;;;5013037;28;20042;-60
2023/08/21 10:42:13;;;;;;;13.60;8.05;;;;;;;;;;5014754;28;20034;-61
2023/08/21 10:44:45;;;;;;;15.75;7.82;;;;;;;;;;5013637;28;20052;-62
2023/08/21 10:47:27;;;;;;;15.68;8.75;;;;;;;;;;5013895;28;20069;-60
2023/08/21 10:49:54;;;;;;;13.60;8.23;;;;;;;;;;5013279;28;20050;-61
2023/08/21 10:52:25;;;;;;;16.90;8.98;;;;;;;;;;5013426;28;20041;-57
2023/08/21 10:54:52;;;;;;;16.83;8.73;;;;;;;;;;5013306;28;20041;-61
2023/08/21 10:57:19;;;;;;;14.35;8.07;;;;;;;;;;5012694;28;20072;-62
2023/08/21 10:59:55;;;;;;;14.40;8.20;;;;;;;;;;5012631;28;20048;-58
2023/08/21 11:02:22;;;;;;;20.85;8.55;;;;;;;;;;5013531;28;20037;-59
2023/08/21 11:04:49;;;;;;;13.02;8.35;;;;;;;;;;5012085;28;20037;-61
2023/08/21 11:07:16;;;;;;;18.58;8.50;;;;;;;;;;5007044;28;20056;-60
2023/08/21 11:09:43;;;;;;;16.65;8.52;;;;;;;;;;5011958;28;20115;-60
2023/08/21 11:12:11;;;;;;;15.90;8.05;;;;;;;;;;5014125;28;20103;-59
2023/08/21 11:14:57;;;;;;;13.07;8.30;;;;;;;;;;5026977;28;20072;-60
2023/08/21 11:17:24;;;;;;;15.90;8.52;;;;;;;;;;5026066;28;20088;-63
2023/08/21 11:19:51;;;;;;;17.00;9.00;;;;;;;;;;5024384;28;20652;-59
2023/08/21 11:22:18;;;;;;;15.98;9.15;;;;;;;;;;5028365;28;20889;-60
2023/08/21 11:24:47;;;;;;;13.82;8.30;;;;;;;;;;5026644;28;20032;-59
2023/08/21 11:27:17;;;;;;;16.88;8.85;;;;;;;;;;5029130;28;20068;-60
2023/08/21 11:29:45;;;;;;;15.20;9.02;;;;;;;;;;5015427;28;20512;-58
2023/08/21 11:32:19;;;;;;;17.27;8.35;;;;;;;;;;5027242;28;20037;-59
2023/08/21 11:34:45;;;;;;;;;;;;;;;;;;5027934;28;20041;-59
2023/08/21 11:37:11;;;;;;;15.15;8.05;;;;;;;;;;5033230;28;19921;-60
2023/08/21 11:39:45;;;;;;;16.02;8.82;;;;;;;;;;5056883;28;20024;-61
2023/08/21 11:42:13;;;;;;;22.60;9.20;;;;;;;;;;5044188;28;20060;-60
2023/08/21 11:45:00;;;;;;;16.25;8.98;;;;;;;;;;5029702;28;20041;-64
2023/08/21 11:47:35;;;;;;;17.52;8.10;;;;;;;;;;5021569;28;20141;-60
2023/08/21 11:50:06;;;;;;;15.50;8.90;;;;;;;;;;4994029;28;20050;-61
2023/08/21 11:52:33;;;;;;;17.67;8.85;;;;;;;;;;4997175;28;20164;-60
2023/08/21 11:55:00;;;;;;;14.75;8.23;;;;;;;;;;4996133;28;20038;-61
2023/08/21 11:57:29;;;;;;;16.85;8.43;;;;;;;;;;4995570;28;20061;-59
2023/08/21 11:59:56;;;;;;;16.83;8.63;;;;;;;;;;4996152;28;20044;-58
2023/08/21 12:02:27;;;;;;;16.02;7.75;;;;;;;;;;4988494;28;20146;-61
2023/08/21 12:04:54;;;;;;;17.35;8.65;;;;;;;;;;4995710;28;20068;-60
2023/08/21 12:07:20;;;;;;;20.95;8.63;;;;;;;;;;4996037;28;20038;-59
2023/08/21 12:09:49;;;;;;;16.23;8.15;;;;;;;;;;4985202;28;20038;-58
2023/08/21 12:12:15;;;;;;;15.30;8.85;;;;;;;;;;4995380;28;20042;-59
2023/08/21 12:14:42;;;;;;;18.73;8.82;;;;;;;;;;4987587;28;20097;-62
2023/08/21 12:17:08;;;;;;;15.75;8.38;;;;;;;;;;4995905;28;20184;-59
2023/08/21 12:19:36;;;;;;;15.43;8.10;;;;;;;;;;4992663;28;20141;-60
2023/08/21 12:22:03;;;;;;;17.30;8.55;;;;;;;;;;5002180;28;20041;-60
2023/08/21 12:24:29;;;;;;;13.80;8.45;;;;;;;;;;5018755;28;20102;-59
2023/08/21 12:26:56;;;;;;;24.75;9.82;;;;;;;;;;5022092;28;20038;-59
2023/08/21 12:29:23;;;;;;;19.80;8.82;;;;;;;;;;5018269;28;20593;-59
2023/08/21 12:31:50;;;;;;;27.58;8.57;;;;;;;;;;5018206;28;20825;-60
2023/08/21 12:34:16;;;;;;;17.13;8.73;;;;;;;;;;5023969;28;20059;-57
2023/08/21 12:37:03;;;;;;;15.48;8.27;;;;;;;;;;5000839;28;20148;-57
2023/08/21 12:39:30;;;;;;;16.05;8.55;;;;;;;;;;4996277;28;20116;-57
2023/08/21 12:41:56;;;;;;;15.02;8.90;;;;;;;;;;5016687;28;20033;-60
2023/08/21 12:44:24;;;;;;;21.73;8.85;;;;;;;;;;5015084;28;20468;-58
2023/08/21 12:46:51;;;;;;;17.98;9.23;;;;;;;;;;5020976;28;20101;-61
2023/08/21 12:49:17;;;;;;;18.05;9.07;;;;;;;;;;5019521;28;20037;-58
2023/08/21 12:51:44;;;;;;;17.60;8.32;;;;;;;;;;5022397;28;20054;-61
2023/08/21 12:54:10;;;;;;;13.60;7.95;;;;;;;;;;5002537;28;20036;-58
2023/08/21 12:56:39;;;;;;;13.65;7.43;;;;;;;;;;5019230;28;20276;-61
2023/08/21 12:59:05;;;;;;;24.00;8.98;;;;;;;;;;5022972;28;20196;-58
2023/08/21 13:01:34;;;;;;;19.13;8.57;;;;;;;;;;5020765;28;20041;-58
2023/08/21 13:04:01;;;;;;;15.77;7.85;;;;;;;;;;5021849;28;20087;-59
2023/08/21 13:06:27;;;;;;;16.63;8.43;;;;;;;;;;5019694;28;20516;-59
2023/08/21 13:08:54;;;;;;;14.50;7.97;;;;;;;;;;5015144;28;20070;-57
2023/08/21 13:11:21;;;;;;;15.18;8.00;;;;;;;;;;5017895;28;20048;-60
2023/08/21 13:13:48;;;;;;;19.55;8.60;;;;;;;;;;5019150;28;20042;-62
2023/08/21 13:16:14;;;;;;;16.15;8.07;;;;;;;;;;5022369;28;20052;-60
2023/08/21 13:18:41;;;;;;;17.13;8.75;;;;;;;;;;5026486;28;20056;-60
2023/08/21 13:21:08;;;;;;;18.65;8.65;;;;;;;;;;5018194;28;20855;-58
2023/08/21 13:23:35;;;;;;;19.83;8.55;;;;;;;;;;5023833;28;20033;-63
2023/08/21 13:26:02;;;;;;;18.98;8.40;;;;;;;;;;5024617;28;20679;-61
2023/08/21 13:28:31;;;;;;;17.75;8.90;;;;;;;;;;5019451;28;20076;-59
2023/08/21 13:30:58;;;;;;;17.80;7.70;;;;;;;;;;5018695;28;20944;-58
2023/08/21 13:33:25;;;;;;;15.45;8.32;;;;;;;;;;5017927;28;20033;-59
2023/08/21 13:35:51;;;;;;;19.13;9.10;;;;;;;;;;5021217;28;20568;-61
2023/08/21 13:38:18;;;;;;;17.83;8.35;;;;;;;;;;5019778;28;20135;-67
2023/08/21 13:40:44;;;;;;;18.70;8.43;;;;;;;;;;5017268;28;20046;-61
2023/08/21 13:43:12;;;;;;;17.05;8.40;;;;;;;;;;5016966;28;20121;-59
2023/08/21 13:45:42;;;;;;;16.30;7.72;;;;;;;;;;5022791;28;20069;-62
2023/08/21 13:48:09;;;;;;;18.20;8.55;;;;;;;;;;5025389;28;20041;-58
2023/08/21 13:50:36;;;;;;;15.18;8.15;;;;;;;;;;5022592;28;20042;-61
2023/08/21 13:53:02;;;;;;;17.55;8.30;;;;;;;;;;5023253;28;20041;-64
2023/08/21 13:55:29;;;;;;;18.05;8.98;;;;;;;;;;5022133;28;20029;-59
2023/08/21 13:57:55;;;;;;;19.60;9.23;;;;;;;;;;5021239;28;20055;-59
2023/08/21 14:00:22;;;;;;;17.67;8.75;;;;;;;;;;5019679;28;20052;-62
2023/08/21 14:02:49;;;;;;;23.90;8.80;;;;;;;;;;5015111;28;20041;-60
2023/08/21 14:05:15;;;;;;;26.58;9.05;;;;;;;;;;5014261;28;20053;-69
2023/08/21 14:07:42;;;;;;;17.85;8.88;;;;;;;;;;5013813;28;20051;-57
2023/08/21 14:10:09;;;;;;;17.80;8.77;;;;;;;;;;5014445;28;20043;-58
2023/08/21 14:12:35;;;;;;;16.30;9.23;;;;;;;;;;5015465;28;20052;-59
2023/08/21 14:15:02;;;;;;;20.48;8.93;;;;;;;;;;5014705;28;20049;-61
2023/08/21 14:17:29;;;;;;;16.13;8.75;;;;;;;;;;5013486;28;20111;-60
2023/08/21 14:19:56;;;;;;;14.65;8.43;;;;;;;;;;5015469;28;21564;-62
2023/08/21 14:22:22;;;;;;;21.92;9.15;;;;;;;;;;5009678;28;20045;-63
2023/08/21 14:24:49;;;;;;;19.88;8.85;;;;;;;;;;5013593;28;20045;-60
2023/08/21 14:27:15;;;;;;;19.85;8.43;;;;;;;;;;5011641;28;20076;-58
2023/08/21 14:29:45;;;;;;;13.98;8.27;;;;;;;;;;5011060;28;20064;-58
2023/08/21 14:32:12;;;;;;;17.73;8.90;;;;;;;;;;5014242;28;20049;-59
2023/08/21 14:34:39;;;;;;;17.38;9.02;;;;;;;;;;5011978;28;20097;-58
2023/08/21 14:37:05;;;;;;;16.63;8.88;;;;;;;;;;5010637;28;20037;-59
2023/08/21 14:39:32;;;;;;;14.90;8.88;;;;;;;;;;5012755;28;20040;-61
2023/08/21 14:41:59;;;;;;;19.02;8.80;;;;;;;;;;5028091;28;20469;-62
2023/08/21 14:44:26;;;;;;;15.50;8.90;;;;;;;;;;5012964;28;20048;-59
2023/08/21 14:46:54;;;;;;;20.45;9.57;;;;;;;;;;5012092;28;20125;-62
2023/08/21 14:49:21;;;;;;;18.30;8.98;;;;;;;;;;5012530;28;20048;-59
2023/08/21 14:51:48;;;;;;;27.30;9.68;;;;;;;;;;5027725;28;20038;-58
2023/08/21 14:54:14;;;;;;;16.95;9.40;;;;;;;;;;5010802;28;20061;-61
2023/08/21 14:56:41;;;;;;;18.33;9.95;;;;;;;;;;5029599;28;20931;-58
2023/08/21 14:59:10;;;;;;;20.33;9.45;;;;;;;;;;5011289;28;20466;-60
2023/08/21 15:01:39;;;;;;;23.13;9.02;;;;;;;;;;5011859;28;20061;-62
2023/08/21 15:04:06;;;;;;;20.20;9.63;;;;;;;;;;5013331;28;20580;-61
2023/08/21 15:06:34;;;;;;;25.33;9.50;;;;;;;;;;5011071;28;20038;-62
2023/08/21 15:09:00;;;;;;;16.73;9.80;;;;;;;;;;5011815;28;20393;-60
2023/08/21 15:11:27;;;;;;;23.15;9.07;;;;;;;;;;5027503;28;20143;-60
2023/08/21 15:13:53;;;;;;;18.02;9.38;;;;;;;;;;5012648;28;20044;-61
2023/08/21 15:16:21;;;;;;;19.15;9.60;;;;;;;;;;5012684;28;20044;-59
2023/08/21 15:18:51;;;;;;;19.67;9.73;;;;;;;;;;5011221;28;20045;-61
2023/08/21 15:21:19;;;;;;;17.25;9.10;;;;;;;;;;5013248;28;20066;-63
2023/08/21 15:23:46;;;;;;;18.63;9.60;;;;;;;;;;5011096;28;20044;-60
2023/08/21 15:26:12;;;;;;;17.95;9.98;;;;;;;;;;5011924;28;20049;-59
2023/08/21 15:28:39;;;;;;;16.42;9.35;;;;;;;;;;5010142;28;20033;-59
2023/08/21 15:31:07;;;;;;;17.42;9.38;;;;;;;;;;5012675;28;20045;-58
2023/08/21 15:33:34;;;;;;;14.55;9.40;;;;;;;;;;5011636;28;20042;-59
2023/08/21 15:36:00;;;;;;;20.98;9.40;;;;;;;;;;5027959;28;20949;-60
2023/08/21 15:38:27;;;;;;;18.30;10.25;;;;;;;;;;5011472;28;20849;-60
2023/08/21 15:40:53;;;;;;;21.60;9.82;;;;;;;;;;5013777;28;20060;-61
2023/08/21 15:43:20;;;;;;;18.63;9.10;;;;;;;;;;5013346;28;20124;-60
2023/08/21 15:45:46;;;;;;;18.38;9.57;;;;;;;;;;5015372;28;20136;-60